Hawkins, Texas
Current Conditions -  °F | °C
As of 2:53 PM on Friday 28 Nov 2014 (Local Time) from KTYR Reporting Station
Few Clouds Few Clouds  
Wind Chill: 68°   Ceiling: Unl
Heat Index: 68°   Visibility: 10mi
Dew Point: 49°   Wind: 17mph
Humidity: 50%   Direction: 180°S
Pressure: 30.12"   Gusts: NA
Location:  32.59°N, 95.2°W
Report Text: KTYR 282053Z 18015KT 10SM FEW036 20/09 A3012 RMK AO2 SLP198 T02000094 56037
Loading
Personal Weather Stations






























Interactive Weather Map New forecast layout! Learn more

10-Day Weather Forecast

Advertisements
Track Severe Weather on mobile